Seanor, Pennsylvania
Current Conditions -  °F | °C
As of 9:54 PM on Monday 20 Oct 2014 (Local Time) from KJST Reporting Station
Overcast Overcast  
Wind Chill: 45°   Ceiling: 10000
Heat Index: 49°   Visibility: 10mi
Dew Point: 38°   Wind: 9mph
Humidity: 66%   Direction: 220°SW
Pressure: 29.9"   Gusts: NA
Location:  40.21°N, 78.9°W
Report Text: KJST 210154Z AUTO 22008KT 10SM SCT075 OVC100 09/03 A2990 RMK AO2 RAB04E18 SLP131 P0000 T00940033
Loading
Personal Weather Stations






























Interactive Weather Map
Tropical Storm Tracking
New forecast layout! Learn more

10-Day Weather Forecast

Advertisements
Track Severe Weather on mobile